createdAt,value
2022-10-15T00:01:32.987Z,7.35
2022-10-15T00:04:37.787Z,7.38
2022-10-15T00:07:44.285Z,7.48
2022-10-15T00:10:49.752Z,7.48
2022-10-15T00:13:55.668Z,7.43
2022-10-15T00:17:01.946Z,7.46
2022-10-15T00:20:09.480Z,7.43
2022-10-15T00:23:14.929Z,7.27
2022-10-15T00:26:32.765Z,7.26
2022-10-15T00:29:39.498Z,7.21
2022-10-15T00:32:38.309Z,7.14
2022-10-15T00:35:43.375Z,7.10
2022-10-15T00:38:48.297Z,7.07
2022-10-15T00:41:59.419Z,7.16
2022-10-15T00:45:11.276Z,7.04
2022-10-15T00:48:17.167Z,7.04
2022-10-15T00:51:24.082Z,6.91
2022-10-15T00:54:23.353Z,7.10
2022-10-15T00:57:29.076Z,7.14
2022-10-15T01:00:35.299Z,7.22
2022-10-15T01:03:42.770Z,6.88
2022-10-15T01:06:49.321Z,6.91
2022-10-15T01:09:55.021Z,7.07
2022-10-15T01:13:42.331Z,7.12
2022-10-15T01:17:06.985Z,7.10
2022-10-15T01:21:01.079Z,6.93
2022-10-15T01:24:35.738Z,6.72
2022-10-15T01:27:55.151Z,6.64
2022-10-15T01:31:21.743Z,6.56
2022-10-15T01:34:40.631Z,6.71
2022-10-15T01:38:09.270Z,6.53
2022-10-15T01:41:19.694Z,6.49
2022-10-15T01:44:39.289Z,6.38
2022-10-15T01:48:02.903Z,6.24
2022-10-15T01:51:10.045Z,6.18
2022-10-15T01:54:15.865Z,6.10
2022-10-15T01:57:23.048Z,6.19
2022-10-15T02:00:28.962Z,6.19
2022-10-15T02:03:34.504Z,6.10
2022-10-15T02:06:49.497Z,6.04
2022-10-15T02:10:09.741Z,6.01
2022-10-15T02:13:28.086Z,5.98
2022-10-15T02:17:01.409Z,6.00
2022-10-15T02:20:27.193Z,6.02
2022-10-15T02:23:38.873Z,5.85
2022-10-15T02:26:45.139Z,5.72
2022-10-15T02:29:51.452Z,5.94
2022-10-15T02:33:00.529Z,5.97
2022-10-15T02:36:05.167Z,5.82
2022-10-15T02:39:11.733Z,5.92
2022-10-15T02:42:17.772Z,5.86
2022-10-15T02:45:24.183Z,5.69
2022-10-15T02:48:31.081Z,5.73
2022-10-15T02:51:36.017Z,5.59
2022-10-15T02:54:41.493Z,5.58
2022-10-15T02:57:48.720Z,5.67
2022-10-15T03:00:53.412Z,5.90
2022-10-15T03:04:00.864Z,5.86
2022-10-15T03:07:08.228Z,5.57
2022-10-15T03:10:14.773Z,5.46
2022-10-15T03:13:21.390Z,5.51
2022-10-15T03:16:27.977Z,5.52
2022-10-15T03:19:34.668Z,5.49
2022-10-15T03:22:40.837Z,5.42
2022-10-15T03:25:47.603Z,5.47
2022-10-15T03:28:52.867Z,5.38
2022-10-15T03:32:07.108Z,5.31
2022-10-15T03:35:12.885Z,5.57
2022-10-15T03:38:18.709Z,5.25
2022-10-15T03:41:25.234Z,5.44
2022-10-15T03:44:29.886Z,5.29
2022-10-15T03:47:41.041Z,5.36
2022-10-15T03:50:45.923Z,5.38
2022-10-15T03:53:51.670Z,5.17
2022-10-15T03:56:50.780Z,5.32
2022-10-15T03:59:59.206Z,5.17
2022-10-15T04:03:06.766Z,5.34
2022-10-15T04:06:13.592Z,5.24
2022-10-15T04:09:20.363Z,5.39
2022-10-15T04:12:28.629Z,5.17
2022-10-15T04:15:35.119Z,5.13
2022-10-15T04:18:42.718Z,5.01
2022-10-15T04:21:48.571Z,4.98
2022-10-15T04:24:56.589Z,5.22
2022-10-15T04:27:55.988Z,5.27
2022-10-15T04:31:02.754Z,5.35
2022-10-15T04:34:08.825Z,5.38
2022-10-15T04:37:13.604Z,5.34
2022-10-15T04:40:19.473Z,5.51
2022-10-15T04:43:25.015Z,5.63
2022-10-15T04:46:33.204Z,5.39
2022-10-15T04:49:43.082Z,5.77
2022-10-15T04:53:07.209Z,5.89
2022-10-15T04:56:23.845Z,6.01
2022-10-15T04:59:29.560Z,5.98
2022-10-15T05:02:57.452Z,6.07
2022-10-15T05:06:05.715Z,5.78
2022-10-15T05:09:14.674Z,5.95
2022-10-15T05:12:22.480Z,6.11
2022-10-15T05:15:30.746Z,6.28
2022-10-15T05:18:38.355Z,6.49
2022-10-15T05:21:44.739Z,6.68
2022-10-15T05:24:53.188Z,6.80
2022-10-15T05:28:03.191Z,6.93
2022-10-15T05:31:10.986Z,6.90
2022-10-15T05:34:22.133Z,6.80
2022-10-15T05:37:38.844Z,6.85
2022-10-15T05:40:45.617Z,7.11
2022-10-15T05:43:53.760Z,7.09
2022-10-15T05:47:01.788Z,7.15
2022-10-15T05:50:11.025Z,7.41
2022-10-15T05:53:18.658Z,7.58
2022-10-15T05:56:28.278Z,7.60
2022-10-15T05:59:34.746Z,7.72
2022-10-15T06:02:41.882Z,7.90
2022-10-15T06:05:47.953Z,8.14
2022-10-15T06:08:54.220Z,8.39
2022-10-15T06:12:01.120Z,8.60
2022-10-15T06:15:07.124Z,8.79
2022-10-15T06:18:12.693Z,8.87
2022-10-15T06:21:20.574Z,8.97
2022-10-15T06:24:26.287Z,8.91
2022-10-15T06:27:44.494Z,9.04
2022-10-15T06:30:52.143Z,9.25
2022-10-15T06:34:01.445Z,9.51
2022-10-15T06:37:07.371Z,9.52
2022-10-15T06:40:13.289Z,9.66
2022-10-15T06:43:21.961Z,9.69
2022-10-15T06:46:28.093Z,9.62
2022-10-15T06:49:34.568Z,9.89
2022-10-15T06:52:41.420Z,10.13
2022-10-15T06:55:46.801Z,10.20
2022-10-15T06:58:52.511Z,10.45
2022-10-15T07:01:58.084Z,10.59
2022-10-15T07:05:04.240Z,10.69
2022-10-15T07:08:11.025Z,10.82
2022-10-15T07:11:22.370Z,10.91
2022-10-15T07:14:28.324Z,11.12
2022-10-15T07:17:35.163Z,11.03
2022-10-15T07:20:41.654Z,11.18
2022-10-15T07:23:48.398Z,11.15
2022-10-15T07:26:54.710Z,11.41
2022-10-15T07:30:01.226Z,11.52
2022-10-15T07:33:07.416Z,11.52
2022-10-15T07:36:16.865Z,11.64
2022-10-15T07:39:26.271Z,11.74
2022-10-15T07:42:32.353Z,11.83
2022-10-15T07:45:38.075Z,11.85
2022-10-15T07:48:44.078Z,11.93
2022-10-15T07:51:49.922Z,11.98
2022-10-15T07:54:55.825Z,12.03
2022-10-15T07:58:03.002Z,12.12
2022-10-15T08:01:09.617Z,12.24
2022-10-15T08:04:15.481Z,12.42
2022-10-15T08:07:20.977Z,12.43
2022-10-15T08:10:28.130Z,12.33
2022-10-15T08:13:27.895Z,12.27
2022-10-15T08:16:22.276Z,12.28
2022-10-15T08:19:23.854Z,12.27
2022-10-15T08:22:29.512Z,12.44
2022-10-15T08:25:35.006Z,12.43
2022-10-15T08:28:41.236Z,12.52
2022-10-15T08:31:47.036Z,12.62
2022-10-15T08:34:54.991Z,12.77
2022-10-15T08:38:03.069Z,12.81
2022-10-15T08:41:13.508Z,12.75
2022-10-15T08:44:19.812Z,12.66
2022-10-15T08:47:39.537Z,12.74
2022-10-15T08:51:18.038Z,12.78
2022-10-15T08:54:28.516Z,12.93
2022-10-15T08:57:42.114Z,13.02
2022-10-15T09:01:07.520Z,13.01
2022-10-15T09:04:50.317Z,12.99
2022-10-15T09:08:02.030Z,13.00
2022-10-15T09:11:12.126Z,12.94
2022-10-15T09:14:17.144Z,12.96
2022-10-15T09:17:39.663Z,12.91
2022-10-15T09:20:49.105Z,12.95
2022-10-15T09:23:55.176Z,12.92
2022-10-15T09:27:31.890Z,12.90
2022-10-15T09:30:52.148Z,12.90
2022-10-15T09:34:08.782Z,12.91
2022-10-15T09:37:17.444Z,12.90
2022-10-15T09:40:50.114Z,12.88
2022-10-15T09:43:57.832Z,12.95
2022-10-15T09:47:05.421Z,13.09
2022-10-15T09:50:10.994Z,13.24
2022-10-15T09:53:52.456Z,13.31
2022-10-15T09:57:08.285Z,13.33
2022-10-15T10:00:15.676Z,13.30
2022-10-15T10:03:25.865Z,13.48
2022-10-15T10:06:31.894Z,13.60
2022-10-15T10:09:54.121Z,13.63
2022-10-15T10:13:00.901Z,13.46
2022-10-15T10:16:09.231Z,13.52
2022-10-15T10:19:28.359Z,13.59
2022-10-15T10:22:34.897Z,13.43
2022-10-15T10:25:48.727Z,13.51
2022-10-15T10:29:22.168Z,13.42
2022-10-15T10:32:35.372Z,13.32
2022-10-15T10:35:44.378Z,13.15
2022-10-15T10:38:52.692Z,13.40
2022-10-15T10:42:08.707Z,13.42
2022-10-15T10:45:38.630Z,13.50
2022-10-15T10:49:05.242Z,13.57
2022-10-15T10:52:11.421Z,13.48
2022-10-15T10:55:28.244Z,13.41
2022-10-15T10:58:36.666Z,13.67
2022-10-15T11:01:41.422Z,13.74
2022-10-15T11:04:49.083Z,13.74
2022-10-15T11:08:09.982Z,13.91
2022-10-15T11:11:36.374Z,13.95
2022-10-15T11:15:01.204Z,13.86
2022-10-15T11:18:37.986Z,13.72
2022-10-15T11:22:09.204Z,13.65
2022-10-15T11:25:35.657Z,13.88
2022-10-15T11:29:07.550Z,13.88
2022-10-15T11:32:26.060Z,13.90
2022-10-15T11:35:53.257Z,13.90
2022-10-15T11:39:21.013Z,13.89
2022-10-15T11:42:42.268Z,14.00
2022-10-15T11:46:13.096Z,13.98
2022-10-15T11:49:52.307Z,14.07
2022-10-15T11:53:13.538Z,14.10
2022-10-15T11:56:28.265Z,14.08
2022-10-15T12:00:00.798Z,14.14
2022-10-15T12:03:10.585Z,14.24
2022-10-15T12:06:31.189Z,14.11
2022-10-15T12:09:45.644Z,14.05
2022-10-15T12:13:21.742Z,14.06
2022-10-15T12:17:11.619Z,14.19
2022-10-15T12:20:34.917Z,14.20
2022-10-15T12:23:56.450Z,14.11
2022-10-15T12:27:01.833Z,14.09
2022-10-15T12:30:18.699Z,13.92
2022-10-15T12:33:11.151Z,12.08
2022-10-15T12:36:37.683Z,13.36
2022-10-15T12:39:58.742Z,13.37
2022-10-15T12:42:54.457Z,13.40
2022-10-15T12:46:13.080Z,13.42
2022-10-15T12:49:38.894Z,13.53
2022-10-15T12:53:43.048Z,13.43
2022-10-15T12:56:54.681Z,13.36
2022-10-15T13:00:05.482Z,13.33
2022-10-15T13:03:11.831Z,13.43
2022-10-15T13:06:41.621Z,13.40
2022-10-15T13:09:49.397Z,13.47
2022-10-15T13:12:57.400Z,13.44
2022-10-15T13:16:13.842Z,13.42
2022-10-15T13:19:19.385Z,13.39
2022-10-15T13:22:43.013Z,13.38
2022-10-15T13:25:49.561Z,13.42
2022-10-15T13:28:50.662Z,13.36
2022-10-15T13:31:56.832Z,13.39
2022-10-15T13:35:04.350Z,13.49
2022-10-15T13:38:12.762Z,13.57
2022-10-15T13:41:18.564Z,13.59
2022-10-15T13:44:36.596Z,13.40
2022-10-15T13:47:47.685Z,13.37
2022-10-15T13:50:54.448Z,13.28
2022-10-15T13:53:59.666Z,13.35
2022-10-15T13:57:05.450Z,13.33
2022-10-15T14:00:12.979Z,13.30
2022-10-15T14:03:35.604Z,13.32
2022-10-15T14:06:55.973Z,13.37
2022-10-15T14:10:00.573Z,13.26
2022-10-15T14:13:06.114Z,13.27
2022-10-15T14:16:35.223Z,13.34
2022-10-15T14:19:40.246Z,13.13
2022-10-15T14:22:46.743Z,13.01
2022-10-15T14:25:52.839Z,12.87
2022-10-15T14:29:03.206Z,12.96
2022-10-15T14:32:09.201Z,12.88
2022-10-15T14:35:16.831Z,12.77
2022-10-15T14:38:26.426Z,12.76
2022-10-15T14:41:42.974Z,12.72
2022-10-15T14:45:02.871Z,12.67
2022-10-15T14:48:17.453Z,12.60
2022-10-15T14:51:31.355Z,12.54
2022-10-15T14:54:40.189Z,12.41
2022-10-15T14:57:49.609Z,12.23
2022-10-15T15:01:00.404Z,12.17
2022-10-15T15:04:10.204Z,12.01
2022-10-15T15:07:16.685Z,11.91
2022-10-15T15:10:23.791Z,11.81
2022-10-15T15:13:34.092Z,11.72
2022-10-15T15:16:39.633Z,11.51
2022-10-15T15:19:44.313Z,11.42
2022-10-15T15:22:49.746Z,11.37
2022-10-15T15:25:58.071Z,11.24
2022-10-15T15:29:04.777Z,11.14
2022-10-15T15:32:10.642Z,11.13
2022-10-15T15:35:16.468Z,11.11
2022-10-15T15:38:22.035Z,11.07
2022-10-15T15:41:36.004Z,10.83
2022-10-15T15:44:42.175Z,10.81
2022-10-15T15:47:47.754Z,10.59
2022-10-15T15:50:53.597Z,10.59
2022-10-15T15:54:00.275Z,10.46
2022-10-15T15:57:07.732Z,10.47
2022-10-15T16:00:13.425Z,10.59
2022-10-15T16:03:19.427Z,10.49
2022-10-15T16:06:26.234Z,10.39
2022-10-15T16:09:33.301Z,10.39
2022-10-15T16:12:40.801Z,10.35
2022-10-15T16:15:47.695Z,10.36
2022-10-15T16:18:53.885Z,10.32
2022-10-15T16:22:00.704Z,10.19
2022-10-15T16:25:07.458Z,10.13
2022-10-15T16:28:14.102Z,9.98
2022-10-15T16:31:41.922Z,9.90
2022-10-15T16:34:48.304Z,9.85
2022-10-15T16:37:53.882Z,9.80
2022-10-15T16:41:01.350Z,9.79
2022-10-15T16:44:07.419Z,9.73
2022-10-15T16:47:15.638Z,9.64
2022-10-15T16:50:22.903Z,9.59
2022-10-15T16:53:29.803Z,9.50
2022-10-15T16:56:40.986Z,9.35
2022-10-15T16:59:47.350Z,9.42
2022-10-15T17:02:54.873Z,9.36
2022-10-15T17:06:00.585Z,9.35
2022-10-15T17:09:12.733Z,9.35
2022-10-15T17:12:17.979Z,9.45
2022-10-15T17:15:23.510Z,9.35
2022-10-15T17:18:28.855Z,9.29
2022-10-15T17:21:36.340Z,9.38
2022-10-15T17:24:41.725Z,9.40
2022-10-15T17:27:42.695Z,9.21
2022-10-15T17:30:28.942Z,9.39
2022-10-15T17:33:21.874Z,9.35
2022-10-15T17:36:26.297Z,9.28
2022-10-15T17:39:35.094Z,9.18
2022-10-15T17:42:41.349Z,9.05
2022-10-15T17:45:40.548Z,8.88
2022-10-15T17:48:47.186Z,8.99
2022-10-15T17:51:52.922Z,8.94
2022-10-15T17:54:58.675Z,8.89
2022-10-15T17:58:04.304Z,8.95
2022-10-15T18:01:12.706Z,8.94
2022-10-15T18:04:19.271Z,8.95
2022-10-15T18:07:27.113Z,8.96
2022-10-15T18:10:33.272Z,8.97
2022-10-15T18:13:39.491Z,9.09
2022-10-15T18:16:46.724Z,9.11
2022-10-15T18:19:53.357Z,8.94
2022-10-15T18:22:58.907Z,8.81
2022-10-15T18:26:06.547Z,8.82
2022-10-15T18:29:12.326Z,8.78
2022-10-15T18:32:20.157Z,8.81
2022-10-15T18:35:25.922Z,8.89
2022-10-15T18:38:32.628Z,8.90
2022-10-15T18:44:49.795Z,8.83
2022-10-15T18:47:49.580Z,8.80
2022-10-15T18:50:43.621Z,8.82
2022-10-15T18:53:50.289Z,8.77
2022-10-15T18:56:56.560Z,8.76
2022-10-15T19:00:02.974Z,8.70
2022-10-15T19:03:09.281Z,8.70
2022-10-15T19:06:15.536Z,8.60
2022-10-15T19:09:24.566Z,8.54
2022-10-15T19:12:23.802Z,8.45
2022-10-15T19:15:25.171Z,8.39
2022-10-15T19:18:31.931Z,8.38
2022-10-15T19:21:38.021Z,8.33
2022-10-15T19:24:43.448Z,8.19
2022-10-15T19:27:49.584Z,8.28
2022-10-15T19:30:56.000Z,8.26
2022-10-15T19:34:04.759Z,8.24
2022-10-15T19:37:10.909Z,8.13
2022-10-15T19:40:18.867Z,8.15
2022-10-15T19:43:25.717Z,8.05
2022-10-15T19:46:31.760Z,8.07
2022-10-15T19:49:30.076Z,8.07
2022-10-15T19:52:22.784Z,8.08
2022-10-15T19:55:28.973Z,8.19
2022-10-15T19:58:35.314Z,8.03
2022-10-15T20:01:35.315Z,7.86
2022-10-15T20:04:22.044Z,7.83
2022-10-15T20:07:14.131Z,7.77
2022-10-15T20:10:06.402Z,7.83
2022-10-15T20:13:11.805Z,7.89
2022-10-15T20:16:24.841Z,7.73
2022-10-15T20:19:34.524Z,7.71
2022-10-15T20:22:40.910Z,7.70
2022-10-15T20:25:47.305Z,7.74
2022-10-15T20:28:58.894Z,7.75
2022-10-15T20:32:11.041Z,7.74
2022-10-15T20:35:10.875Z,7.78
2022-10-15T20:38:16.865Z,7.76
2022-10-15T20:41:28.666Z,7.67
2022-10-15T20:44:34.143Z,7.69
2022-10-15T20:47:39.574Z,7.69
2022-10-15T20:50:48.600Z,7.84
2022-10-15T20:53:54.953Z,7.98
2022-10-15T20:57:01.299Z,7.92
2022-10-15T21:00:06.890Z,7.89
2022-10-15T21:03:06.939Z,7.88
2022-10-15T21:06:14.862Z,7.79
2022-10-15T21:09:22.426Z,7.93
2022-10-15T21:12:28.512Z,7.92
2022-10-15T21:15:34.796Z,7.85
2022-10-15T21:18:41.750Z,7.89
2022-10-15T21:21:48.183Z,7.97
2022-10-15T21:24:54.763Z,7.91
2022-10-15T21:28:01.463Z,7.84
2022-10-15T21:31:07.983Z,7.75
2022-10-15T21:34:13.708Z,7.78
2022-10-15T21:37:20.153Z,7.70
2022-10-15T21:40:26.992Z,7.60
2022-10-15T21:43:33.151Z,7.50
2022-10-15T21:46:38.093Z,7.34
2022-10-15T21:49:43.407Z,7.23
2022-10-15T21:52:48.816Z,7.24
2022-10-15T21:55:54.336Z,7.23
2022-10-15T21:59:01.703Z,7.22
2022-10-15T22:02:07.616Z,7.18
2022-10-15T22:05:13.244Z,7.20
2022-10-15T22:08:19.558Z,7.29
2022-10-15T22:11:37.164Z,7.26
2022-10-15T22:14:43.683Z,7.28
2022-10-15T22:17:50.031Z,7.21
2022-10-15T22:20:55.951Z,7.12
2022-10-15T22:24:06.463Z,6.78
2022-10-15T22:27:12.640Z,6.74
2022-10-15T22:30:19.881Z,6.69
2022-10-15T22:33:25.776Z,6.60
2022-10-15T22:36:39.382Z,6.71
2022-10-15T22:39:46.437Z,6.74
2022-10-15T22:42:55.516Z,6.68
2022-10-15T22:46:01.167Z,6.60
2022-10-15T22:49:06.857Z,6.57
2022-10-15T22:52:14.003Z,6.56
2022-10-15T22:55:13.495Z,6.55
2022-10-15T22:57:59.772Z,6.46
2022-10-15T23:00:51.735Z,6.47
2022-10-15T23:03:45.370Z,6.44
2022-10-15T23:06:44.634Z,6.46
2022-10-15T23:09:51.252Z,6.47
2022-10-15T23:12:57.298Z,6.24
2022-10-15T23:16:02.615Z,6.19
2022-10-15T23:19:12.308Z,6.22
2022-10-15T23:22:18.969Z,6.20
2022-10-15T23:25:25.189Z,6.32
2022-10-15T23:28:32.018Z,6.37
2022-10-15T23:31:39.704Z,6.33
2022-10-15T23:34:45.341Z,6.31
2022-10-15T23:37:56.398Z,6.40
2022-10-15T23:41:02.587Z,6.42
2022-10-15T23:44:09.279Z,6.19
2022-10-15T23:47:15.416Z,6.22
2022-10-15T23:50:21.827Z,6.24
2022-10-15T23:53:27.726Z,6.20
2022-10-15T23:56:26.835Z,6.31
2022-10-15T23:59:33.096Z,6.28
